Time;durP1;ratioP1;P1;durP2;ratioP2;P2;SDS_P1;SDS_P2;PMS_P1;PMS_P2;Temp;Humidity;BMP_temperature;BMP_pressure;BME280_temperature;BME280_humidity;BME280_pressure;Samples;Min_cycle;Max_cycle;Signal;HPM_P1;HPM_P2
2023/09/03 00:00:27;;;;;;;;;5.50;5.50;;;;;27.74;100.00;101634.19;2122359;27;46861;-53
2023/09/03 00:01:27;;;;;;;;;5.00;5.00;;;;;27.74;100.00;101634.19;2121982;27;46760;-55
2023/09/03 00:02:28;;;;;;;;;7.75;7.75;;;;;27.74;100.00;101634.19;2121195;27;46448;-55
2023/09/03 00:03:28;;;;;;;;;6.50;6.50;;;;;27.75;100.00;101635.06;2121855;27;46117;-55
2023/09/03 00:04:28;;;;;;;;;7.50;7.50;;;;;27.75;100.00;101633.22;2121656;27;46912;-54
2023/09/03 00:05:29;;;;;;;;;10.75;9.50;;;;;27.75;100.00;101632.34;2121856;27;46602;-53
2023/09/03 00:06:29;;;;;;;;;6.67;6.00;;;;;27.75;100.00;101635.06;2122399;27;46410;-55
2023/09/03 00:07:29;;;;;;;;;10.00;10.00;;;;;27.71;100.00;101628.13;2112632;27;46620;-54
2023/09/03 00:08:30;;;;;;;;;14.25;13.00;;;;;27.73;100.00;101637.91;2113416;27;46337;-54
2023/09/03 00:09:30;;;;;;;;;25.50;25.25;;;;;27.72;100.00;101638.03;2121682;27;46492;-52
2023/09/03 00:10:34;;;;;;;;;5.33;5.33;;;;;27.69;100.00;101633.69;2111391;27;46166;-54
2023/09/03 00:11:35;;;;;;;;;5.00;5.00;;;;;27.66;100.00;101642.09;2113034;27;46609;-54
2023/09/03 00:12:35;;;;;;;;;65.50;54.25;;;;;27.67;100.00;101637.53;2120309;27;46504;-52
2023/09/03 00:13:35;;;;;;;;;14.25;14.25;;;;;27.66;100.00;101635.78;2121954;27;46450;-54
2023/09/03 00:14:35;;;;;;;;;23.00;20.50;;;;;27.68;100.00;101642.84;2112973;27;46883;-54
2023/09/03 00:15:39;;;;;;;;;38.50;33.25;;;;;27.66;100.00;101635.78;2112780;27;46640;-55
2023/09/03 00:16:39;;;;;;;;;34.00;30.80;;;;;27.64;100.00;101635.00;2121787;27;46323;-55
2023/09/03 00:17:40;;;;;;;;;72.00;63.75;;;;;27.61;100.00;101630.69;2121915;27;46366;-54
2023/09/03 00:18:40;;;;;;;;;99.33;94.00;;;;;27.63;100.00;101636.00;2121517;27;45787;-55
2023/09/03 00:19:41;;;;;;;;;167.50;162.75;;;;;27.64;100.00;101635.00;2121722;27;46259;-55
2023/09/03 00:20:54;;;;;;;;;74.75;70.00;;;;;27.64;100.00;101635.91;2113911;27;45060;-56
2023/09/03 00:21:54;;;;;;;;;51.40;42.40;;;;;27.64;100.00;101632.28;2114408;27;46170;-55
2023/09/03 00:22:54;;;;;;;;;51.00;42.75;;;;;27.66;100.00;101642.09;2113399;27;46438;-55
2023/09/03 00:23:55;;;;;;;;;82.25;79.75;;;;;27.63;100.00;101634.16;2112622;27;46372;-52
2023/09/03 00:24:55;;;;;;;;;104.00;102.33;;;;;27.64;100.00;101637.75;2120938;27;47546;-54
2023/09/03 00:25:56;;;;;;;;;109.00;104.33;;;;;27.63;100.00;101636.00;2121036;27;47517;-55
2023/09/03 00:26:57;;;;;;;;;70.50;63.75;;;;;27.62;100.00;101646.03;2112613;27;46306;-53
2023/09/03 00:27:57;;;;;;;;;67.50;58.75;;;;;27.60;100.00;101642.56;2112950;27;45485;-53
2023/09/03 00:28:58;;;;;;;;;40.00;33.00;;;;;27.60;100.00;101639.84;2121759;27;46275;-55
2023/09/03 00:29:58;;;;;;;;;44.50;38.25;;;;;27.58;100.00;101636.38;2121663;27;46806;-56
2023/09/03 00:30:59;;;;;;;;;46.00;39.25;;;;;27.62;100.00;101642.44;2122335;27;45554;-54
2023/09/03 00:32:00;;;;;;;;;29.80;27.60;;;;;27.61;100.00;101646.16;2121544;27;46608;-56
2023/09/03 00:33:00;;;;;;;;;15.25;13.25;;;;;27.59;100.00;101639.97;2116507;27;46252;-55
2023/09/03 00:34:00;;;;;;;;;22.75;22.75;;;;;27.57;100.00;101645.56;2121566;27;46249;-55
2023/09/03 00:35:01;;;;;;;;;13.75;13.75;;;;;27.61;100.00;101649.75;2112623;27;45750;-55
2023/09/03 00:36:03;;;;;;;;;20.75;20.25;;;;;27.60;100.00;101648.03;2104080;28;46853;-55
2023/09/03 00:37:03;;;;;;;;;12.00;12.00;;;;;27.59;100.00;101649.03;2114286;27;46972;-54
2023/09/03 00:38:03;;;;;;;;;21.50;21.00;;;;;27.59;100.00;101650.88;2117268;27;46704;-55
2023/09/03 00:39:04;;;;;;;;;9.75;9.50;;;;;27.60;100.00;101649.88;2118390;27;46909;-55
2023/09/03 00:40:05;;;;;;;;;39.50;33.00;;;;;27.58;100.00;101647.28;2121787;27;46720;-54
2023/09/03 00:41:05;;;;;;;;;20.20;19.00;;;;;27.58;100.00;101647.28;2121869;27;46643;-54
2023/09/03 00:42:05;;;;;;;;;27.75;27.75;;;;;27.57;100.00;101653.72;2121485;27;46292;-54
2023/09/03 00:43:06;;;;;;;;;27.50;27.00;;;;;27.59;100.00;101657.19;2118198;27;46064;-54
2023/09/03 00:44:06;;;;;;;;;15.50;15.50;;;;;27.59;100.00;101659.06;2120517;27;46516;-52
2023/09/03 00:45:07;;;;;;;;;16.75;16.75;;;;;27.59;100.00;101656.34;2121726;27;46449;-55
2023/09/03 00:46:08;;;;;;;;;31.50;29.50;;;;;27.59;100.00;101659.94;2119364;27;46318;-54
2023/09/03 00:47:08;;;;;;;;;39.80;34.40;;;;;27.61;100.00;101657.94;2114808;27;46436;-52
2023/09/03 00:48:12;;;;;;;;;29.25;27.75;;;;;27.61;100.00;101659.81;2117842;27;46897;-53
2023/09/03 00:49:19;;;;;;;;;13.20;12.80;;;;;27.57;100.00;101664.63;2119375;27;46301;-54
2023/09/03 00:50:19;;;;;;;;;20.20;20.20;;;;;27.55;100.00;101667.44;2117762;27;46541;-55
2023/09/03 00:51:20;;;;;;;;;12.00;11.75;;;;;27.54;100.00;101662.13;2119779;27;46271;-55
2023/09/03 00:52:24;;;;;;;;;8.50;8.50;;;;;27.55;100.00;101663.84;2112737;27;46762;-55
2023/09/03 00:53:25;;;;;;;;;5.50;5.50;;;;;27.53;100.00;101663.97;2113108;27;46695;-53
2023/09/03 00:54:26;;;;;;;;;3.75;3.00;;;;;27.52;100.00;101656.78;2122149;27;47025;-54
2023/09/03 00:55:26;;;;;;;;;5.00;4.00;;;;;27.50;100.00;101664.22;2122461;27;45708;-55
2023/09/03 00:56:27;;;;;;;;;3.00;3.00;;;;;27.50;100.00;101661.50;2119685;27;46622;-56
2023/09/03 00:57:28;;;;;;;;;4.00;3.00;;;;;27.50;100.00;101661.50;2115631;27;46191;-54
2023/09/03 00:58:30;;;;;;;;;3.00;3.00;;;;;27.49;100.00;101669.81;2121960;27;46009;-54
2023/09/03 00:59:32;;;;;;;;;4.00;4.00;;;;;27.49;100.00;101664.34;2121805;27;45912;-54
2023/09/03 01:00:33;;;;;;;;;3.50;2.00;;;;;27.48;100.00;101665.34;2111196;27;46367;-54
2023/09/03 01:01:36;;;;;;;;;6.00;5.25;;;;;27.48;100.00;101665.34;2112921;27;46680;-53
2023/09/03 01:02:37;;;;;;;;;5.00;5.00;;;;;27.49;100.00;101664.34;2121715;27;46281;-52
2023/09/03 01:03:38;;;;;;;;;5.00;5.00;;;;;27.48;100.00;101663.50;2121608;27;46679;-55
2023/09/03 01:04:39;;;;;;;;;7.67;7.67;;;;;27.49;100.00;101667.06;2118380;27;46378;-52
2023/09/03 01:05:40;;;;;;;;;5.00;5.00;;;;;27.49;100.00;101659.78;2121678;27;46387;-52
2023/09/03 01:06:41;;;;;;;;;7.67;7.67;;;;;27.46;100.00;101662.75;2121599;27;46388;-54
2023/09/03 01:07:41;;;;;;;;;10.50;8.25;;;;;27.46;100.00;101664.59;2122441;27;46446;-54
2023/09/03 01:08:42;;;;;;;;;7.67;7.67;;;;;27.47;100.00;101661.75;2122177;27;46481;-54
2023/09/03 01:09:42;;;;;;;;;5.00;5.00;;;;;27.45;100.00;101662.88;2119589;27;46851;-52
2023/09/03 01:11:04;;;;;;;;;14.20;13.40;;;;;27.45;100.00;101663.72;2121662;27;46367;-54
2023/09/03 01:12:35;;;;;;;;;15.60;14.00;;;;;27.45;100.00;101660.13;2121411;27;46312;-53
2023/09/03 01:14:03;;;;;;;;;7.25;7.25;;;;;27.43;100.00;101662.09;2122233;27;45159;-54
2023/09/03 01:15:10;;;;;;;;;7.00;6.00;;;;;27.44;100.00;101658.38;2121549;27;46544;-57
2023/09/03 01:16:21;;;;;;;;;5.00;5.00;;;;;27.45;100.00;101660.13;2121519;27;46387;-52
2023/09/03 01:17:30;;;;;;;;;3.00;2.25;;;;;27.44;100.00;101663.81;2113140;27;46561;-54
2023/09/03 01:18:31;;;;;;;;;3.25;2.50;;;;;27.42;100.00;101660.34;2105494;27;46778;-54
2023/09/03 01:19:59;;;;;;;;;4.00;3.67;;;;;27.43;100.00;101656.63;2121359;27;46180;-55
2023/09/03 01:21:34;;;;;;;;;4.00;4.00;;;;;27.43;100.00;101654.78;2119173;27;46851;-54
2023/09/03 01:23:12;;;;;;;;;2.00;2.00;;;;;27.41;100.00;101642.25;2117980;27;46577;-53
2023/09/03 01:24:50;;;;;;;;;2.75;1.75;;;;;27.40;100.00;101645.97;2121573;27;46605;-54
2023/09/03 01:26:14;;;;;;;;;7.50;7.00;;;;;27.39;100.00;101644.25;2116553;27;46401;-54
2023/09/03 01:27:30;;;;;;;;;7.00;6.50;;;;;27.38;100.00;101639.78;2121463;27;45624;-55
2023/09/03 01:28:37;;;;;;;;;4.00;4.00;;;;;27.37;100.00;101636.19;2103472;28;45841;-55
2023/09/03 01:29:41;;;;;;;;;2.75;2.75;;;;;27.36;100.00;101633.59;2104958;27;46418;-55
2023/09/03 01:30:42;;;;;;;;;4.00;4.00;;;;;27.35;100.00;101630.00;2113072;27;46516;-56
2023/09/03 01:31:44;;;;;;;;;5.00;5.00;;;;;27.35;100.00;101637.31;2112839;27;45803;-55
2023/09/03 01:32:48;;;;;;;;;3.75;3.75;;;;;27.36;100.00;101634.44;2121486;27;46532;-55
2023/09/03 01:33:49;;;;;;;;;5.00;5.00;;;;;27.36;100.00;101634.44;2120819;27;46766;-53
2023/09/03 01:34:52;;;;;;;;;5.25;5.25;;;;;27.36;100.00;101630.84;2121461;27;45657;-53
2023/09/03 01:35:55;;;;;;;;;4.00;4.00;;;;;27.34;100.00;101628.25;2112419;27;45888;-50
2023/09/03 01:36:55;;;;;;;;;5.25;4.50;;;;;27.34;100.00;101624.66;2113413;27;46507;-54
2023/09/03 01:37:56;;;;;;;;;4.00;4.00;;;;;27.32;100.00;101630.25;2123139;27;46596;-53
2023/09/03 01:38:59;;;;;;;;;4.00;4.00;;;;;27.34;100.00;101622.81;2122755;27;48519;-53
2023/09/03 01:39:59;;;;;;;;;5.00;3.00;;;;;27.33;100.00;101626.53;2123209;27;46386;-54
2023/09/03 01:41:01;;;;;;;;;4.00;4.00;;;;;27.33;100.00;101621.06;2123606;27;46560;-52
2023/09/03 01:42:01;;;;;;;;;6.00;5.00;;;;;27.33;100.00;101621.06;2122933;27;46156;-54
2023/09/03 01:43:02;;;;;;;;;6.33;5.00;;;;;27.33;100.00;101620.22;2123225;27;46331;-54
2023/09/03 01:44:04;;;;;;;;;10.00;9.75;;;;;27.32;100.00;101616.59;2123140;27;46521;-54
2023/09/03 01:45:06;;;;;;;;;8.25;8.25;;;;;27.32;100.00;101623.91;2122811;27;46504;-55
2023/09/03 01:46:12;;;;;;;;;7.00;6.75;;;;;27.28;100.00;101613.22;2107381;27;46069;-54
2023/09/03 01:47:42;;;;;;;;;10.00;9.00;;;;;27.30;100.00;101620.41;2104277;27;46839;-54
2023/09/03 01:49:24;;;;;;;;;17.20;14.00;;;;;27.33;100.00;101620.22;2078366;28;46003;-52
2023/09/03 01:50:43;;;;;;;;;12.50;11.75;;;;;27.36;100.00;101611.78;2039129;28;46666;-53
2023/09/03 01:52:20;;;;;;;;;8.00;7.00;;;;;27.34;100.00;101613.75;2044715;28;46779;-54
2023/09/03 01:53:28;;;;;;;;;3.25;3.25;;;;;27.32;100.00;101619.34;2044382;28;46992;-53
2023/09/03 01:54:33;;;;;;;;;4.00;4.00;;;;;27.32;100.00;101616.59;2042923;28;46593;-56
2023/09/03 01:55:39;;;;;;;;;5.75;5.75;;;;;27.31;100.00;101619.44;2045991;28;46506;-52
2023/09/03 01:56:45;;;;;;;;;7.25;6.75;;;;;27.27;100.00;101611.50;2044368;28;46397;-54
2023/09/03 01:57:51;;;;;;;;;3.75;3.75;;;;;27.27;100.00;101613.34;2045017;28;46400;-55
2023/09/03 01:58:56;;;;;;;;;5.75;5.75;;;;;27.25;100.00;101615.34;2041519;28;46810;-54
2023/09/03 02:00:00;;;;;;;;;6.00;5.00;;;;;27.25;100.00;101604.44;2044293;28;46230;-55
2023/09/03 02:01:02;;;;;;;;;4.75;4.75;;;;;27.25;100.00;101608.03;2045015;28;46502;-53
2023/09/03 02:02:03;;;;;;;;;2.00;2.00;;;;;27.25;100.00;101608.03;2046527;28;46299;-51
2023/09/03 02:03:04;;;;;;;;;3.67;3.67;;;;;27.26;100.00;101609.75;2044149;28;46228;-54
2023/09/03 02:04:04;;;;;;;;;3.00;3.00;;;;;27.27;100.00;101606.03;2046077;28;46460;-52
2023/09/03 02:05:07;;;;;;;;;2.33;2.33;;;;;27.28;100.00;101609.63;2045398;28;46429;-54
2023/09/03 02:06:07;;;;;;;;;3.00;1.75;;;;;27.27;100.00;101608.78;2044103;28;45967;-53
2023/09/03 02:07:07;;;;;;;;;4.33;4.33;;;;;27.31;100.00;101609.41;2046899;28;46257;-53
2023/09/03 02:08:08;;;;;;;;;3.00;3.00;;;;;27.29;100.00;101608.66;2044257;28;45712;-53
2023/09/03 02:09:08;;;;;;;;;2.00;2.00;;;;;27.27;100.00;101608.78;2038556;28;46646;-54
2023/09/03 02:10:09;;;;;;;;;3.00;3.00;;;;;27.29;100.00;101608.66;2047171;28;46227;-56
2023/09/03 02:11:10;;;;;;;;;2.50;2.50;;;;;27.30;100.00;101614.97;2044930;28;46252;-55
2023/09/03 02:12:10;;;;;;;;;6.00;6.00;;;;;27.29;100.00;101611.38;2039748;28;46702;-54
2023/09/03 02:13:10;;;;;;;;;6.33;6.33;;;;;27.31;100.00;101613.97;2040082;28;46398;-55
2023/09/03 02:14:11;;;;;;;;;9.00;7.00;;;;;27.30;100.00;101614.97;2040442;28;46700;-55
2023/09/03 02:15:11;;;;;;;;;9.67;7.67;;;;;27.27;100.00;101616.94;2039272;28;45415;-53
2023/09/03 02:16:11;;;;;;;;;14.50;13.00;;;;;27.27;100.00;101621.53;2039932;28;46610;-54
2023/09/03 02:17:14;;;;;;;;;14.25;14.25;;;;;27.27;100.00;101626.97;2039673;28;46659;-54
2023/09/03 02:18:16;;;;;;;;;11.75;10.50;;;;;27.29;100.00;101625.00;2039826;28;46772;-54
2023/09/03 02:19:16;;;;;;;;;8.25;8.25;;;;;27.28;100.00;101626.84;2039113;28;46233;-54
2023/09/03 02:20:17;;;;;;;;;7.00;7.00;;;;;27.27;100.00;101627.84;2039187;28;46089;-53
2023/09/03 02:21:17;;;;;;;;;5.67;5.33;;;;;27.26;100.00;101631.56;2044425;28;46256;-54
2023/09/03 02:22:18;;;;;;;;;6.00;6.00;;;;;27.26;100.00;101631.56;2047016;28;46291;-56
2023/09/03 02:23:18;;;;;;;;;37.00;32.50;;;;;27.26;100.00;101633.44;2039085;28;46595;-55
2023/09/03 02:24:19;;;;;;;;;14.00;14.00;;;;;27.26;100.00;101633.44;2043753;28;46255;-55
2023/09/03 02:25:19;;;;;;;;;12.75;12.75;;;;;27.26;100.00;101644.31;2045655;28;46655;-56
2023/09/03 02:26:19;;;;;;;;;11.33;10.00;;;;;27.26;100.00;101638.88;2066228;28;46722;-52
2023/09/03 02:27:20;;;;;;;;;13.50;13.50;;;;;27.25;100.00;101634.41;2079320;28;46664;-53
2023/09/03 02:28:20;;;;;;;;;24.00;21.75;;;;;27.25;100.00;101643.47;2122587;27;46249;-55
2023/09/03 02:29:20;;;;;;;;;16.00;16.00;;;;;27.25;100.00;101642.59;2122315;27;46734;-52
2023/09/03 02:30:21;;;;;;;;;12.25;11.75;;;;;27.25;100.00;101642.59;2122836;27;46259;-53
2023/09/03 02:31:21;;;;;;;;;17.50;17.50;;;;;27.24;100.00;101641.72;2122816;27;46654;-55
2023/09/03 02:32:21;;;;;;;;;17.00;15.50;;;;;27.25;100.00;101640.72;2122278;27;46282;-56
2023/09/03 02:33:22;;;;;;;;;11.00;11.00;;;;;27.22;100.00;101640.97;2122829;27;46320;-53
2023/09/03 02:34:22;;;;;;;;;8.67;8.67;;;;;27.23;100.00;101640.00;2122646;27;46837;-53
2023/09/03 02:35:23;;;;;;;;;7.00;7.00;;;;;27.22;100.00;101635.53;2122617;27;45469;-56
2023/09/03 02:36:23;;;;;;;;;10.00;9.00;;;;;27.21;100.00;101636.50;2122902;27;47066;-50
2023/09/03 02:37:23;;;;;;;;;7.67;7.67;;;;;27.21;100.00;101630.19;2123148;27;46158;-54
2023/09/03 02:38:24;;;;;;;;;5.00;5.00;;;;;27.21;100.00;101630.19;2113453;27;46176;-54
2023/09/03 02:39:24;;;;;;;;;8.67;6.67;;;;;27.22;100.00;101634.66;2113687;27;46309;-56
2023/09/03 02:40:25;;;;;;;;;4.00;4.00;;;;;27.21;100.00;101631.06;2122216;27;46298;-54
2023/09/03 02:41:27;;;;;;;;;3.25;3.25;;;;;27.21;100.00;101632.91;2121621;27;46579;-52
2023/09/03 02:42:27;;;;;;;;;6.50;6.50;;;;;27.21;100.00;101641.09;2122361;27;46334;-52
2023/09/03 02:43:27;;;;;;;;;10.00;10.00;;;;;27.20;100.00;101631.19;2122483;27;48230;-54
2023/09/03 02:44:28;;;;;;;;;7.67;5.67;;;;;27.19;100.00;101640.34;2113400;27;46281;-54
2023/09/03 02:45:28;;;;;;;;;9.00;8.50;;;;;27.17;100.00;101639.56;2114373;27;46267;-54
2023/09/03 02:46:28;;;;;;;;;7.33;5.67;;;;;27.17;100.00;101645.03;2121987;27;46756;-55
2023/09/03 02:47:29;;;;;;;;;7.00;7.00;;;;;27.16;100.00;101638.72;2122275;27;46339;-54
2023/09/03 02:48:29;;;;;;;;;7.00;7.00;;;;;27.15;100.00;101639.69;2122602;27;46730;-54
2023/09/03 02:49:29;;;;;;;;;6.00;5.00;;;;;27.16;100.00;101644.16;2122597;27;46401;-53
2023/09/03 02:50:30;;;;;;;;;6.00;6.00;;;;;27.14;100.00;101643.41;2120861;27;46899;-54
2023/09/03 02:51:32;;;;;;;;;4.00;4.00;;;;;27.15;100.00;101645.16;2116033;27;46728;-52
2023/09/03 02:52:32;;;;;;;;;4.75;4.75;;;;;27.11;100.00;101643.66;2122580;27;47037;-52
2023/09/03 02:53:32;;;;;;;;;4.00;4.00;;;;;27.11;100.00;101646.38;2122587;27;46389;-54
2023/09/03 02:54:33;;;;;;;;;4.00;3.00;;;;;27.10;100.00;101650.09;2122586;27;45595;-53
2023/09/03 02:55:33;;;;;;;;;2.67;2.67;;;;;27.09;100.00;101652.94;2113677;27;46751;-55
2023/09/03 02:56:34;;;;;;;;;6.00;5.00;;;;;27.08;100.00;101652.06;2104868;28;46840;-55
2023/09/03 02:57:34;;;;;;;;;11.50;11.50;;;;;27.09;100.00;101655.66;2113403;27;46913;-53
2023/09/03 02:58:34;;;;;;;;;11.33;11.00;;;;;27.07;100.00;101658.50;2115732;27;46722;-55
2023/09/03 02:59:34;;;;;;;;;6.67;6.00;;;;;27.06;100.00;101653.16;2119015;27;46632;-54
2023/09/03 03:00:35;;;;;;;;;22.25;20.75;;;;;27.06;100.00;101659.50;2114171;27;46184;-52
2023/09/03 03:01:35;;;;;;;;;6.00;6.00;;;;;27.05;100.00;101654.13;2119712;27;45463;-52
2023/09/03 03:02:35;;;;;;;;;12.00;12.00;;;;;27.04;100.00;101669.63;2122616;27;46806;-55
2023/09/03 03:03:36;;;;;;;;;22.00;22.00;;;;;27.04;100.00;101660.56;2122339;27;46601;-53
2023/09/03 03:04:36;;;;;;;;;19.50;18.75;;;;;27.03;100.00;101656.13;2118865;27;46752;-53
2023/09/03 03:05:37;;;;;;;;;17.75;16.00;;;;;27.02;100.00;101655.25;2113964;27;45799;-55
2023/09/03 03:06:37;;;;;;;;;23.25;22.25;;;;;27.01;100.00;101653.50;2119366;27;46239;-53
2023/09/03 03:07:40;;;;;;;;;30.00;28.75;;;;;27.01;100.00;101667.13;2122434;27;46348;-56
2023/09/03 03:08:41;;;;;;;;;14.00;14.00;;;;;26.98;100.00;101664.63;2122677;27;46626;-52
2023/09/03 03:09:41;;;;;;;;;10.80;7.40;;;;;27.00;100.00;101670.81;2120883;27;46232;-55
2023/09/03 03:10:41;;;;;;;;;5.00;5.00;;;;;26.91;100.00;101669.63;2113839;27;46186;-53
2023/09/03 03:11:42;;;;;;;;;3.33;3.00;;;;;26.96;100.00;101672.03;2113157;27;47147;-53
2023/09/03 03:12:44;;;;;;;;;3.00;3.00;;;;;26.96;100.00;101667.47;2122475;27;46191;-53
2023/09/03 03:13:47;;;;;;;;;4.25;3.25;;;;;26.94;100.00;101671.28;2121985;27;46737;-55
2023/09/03 03:14:48;;;;;;;;;3.50;3.00;;;;;26.92;100.00;101665.94;2121559;27;45670;-55
2023/09/03 03:15:51;;;;;;;;;2.00;2.00;;;;;26.90;100.00;101665.19;2121006;27;46676;-54
2023/09/03 03:16:51;;;;;;;;;2.00;2.00;;;;;26.89;100.00;101663.44;2120253;27;46964;-53
2023/09/03 03:17:52;;;;;;;;;3.00;3.00;;;;;26.87;100.00;101665.41;2117883;27;46224;-53
2023/09/03 03:18:52;;;;;;;;;3.33;3.33;;;;;26.88;100.00;101666.28;2121921;27;46776;-55
2023/09/03 03:19:53;;;;;;;;;1.00;1.00;;;;;26.87;100.00;101659.97;2122518;27;46645;-53
2023/09/03 03:20:55;;;;;;;;;2.00;2.00;;;;;26.89;100.00;101670.75;2122834;27;45691;-53
2023/09/03 03:21:56;;;;;;;;;3.00;3.00;;;;;26.88;100.00;101669.00;2122683;27;46559;-55
2023/09/03 03:22:56;;;;;;;;;3.33;3.33;;;;;26.85;100.00;101661.94;2122420;27;46034;-54
2023/09/03 03:23:57;;;;;;;;;3.67;2.00;;;;;26.85;100.00;101667.41;2122564;27;46636;-53
2023/09/03 03:24:57;;;;;;;;;4.33;1.33;;;;;26.87;100.00;101662.69;2113555;27;45298;-54
2023/09/03 03:25:57;;;;;;;;;3.00;3.00;;;;;26.81;100.00;101668.63;2109149;27;46319;-54
2023/09/03 03:26:57;;;;;;;;;3.67;2.67;;;;;26.81;100.00;101663.16;2118529;27;45869;-55
2023/09/03 03:27:58;;;;;;;;;2.33;1.33;;;;;26.83;100.00;101660.31;2121873;27;46276;-53
2023/09/03 03:28:58;;;;;;;;;3.00;3.00;;;;;26.81;100.00;101659.56;2122622;27;46220;-54
2023/09/03 03:29:59;;;;;;;;;3.00;3.00;;;;;26.79;100.00;101661.53;2122659;27;45522;-55
2023/09/03 03:31:14;;;;;;;;;2.00;2.00;;;;;26.77;100.00;101660.78;2116638;27;46266;-56
2023/09/03 03:32:18;;;;;;;;;3.25;2.00;;;;;26.81;100.00;101660.44;2120354;27;46340;-52
2023/09/03 03:33:19;;;;;;;;;3.00;3.00;;;;;26.81;100.00;101663.16;2122013;27;46066;-54
2023/09/03 03:34:19;;;;;;;;;3.00;3.00;;;;;26.83;100.00;101663.06;2122256;27;46014;-54
2023/09/03 03:35:19;;;;;;;;;2.00;2.00;;;;;26.82;100.00;101670.34;2119983;27;46652;-51
2023/09/03 03:36:21;;;;;;;;;2.00;2.00;;;;;26.79;100.00;101673.28;2113886;27;46274;-54
2023/09/03 03:37:21;;;;;;;;;3.00;3.00;;;;;26.74;100.00;101663.72;2117870;27;46143;-55
2023/09/03 03:38:21;;;;;;;;;1.00;1.00;;;;;26.73;100.00;101667.44;2122498;27;45417;-52
2023/09/03 03:39:22;;;;;;;;;1.67;1.67;;;;;26.73;100.00;101672.88;2122279;27;46812;-51
2023/09/03 03:40:22;;;;;;;;;3.33;3.33;;;;;26.77;100.00;101677.97;2116001;27;46618;-54
2023/09/03 03:41:22;;;;;;;;;2.00;2.00;;;;;26.76;100.00;101678.09;2122267;27;46642;-53
2023/09/03 03:42:23;;;;;;;;;4.00;3.00;;;;;26.72;100.00;101676.59;2118632;27;46441;-53
2023/09/03 03:43:23;;;;;;;;;2.67;2.67;;;;;26.69;100.00;101670.41;2116512;27;46565;-54
2023/09/03 03:44:23;;;;;;;;;2.00;2.00;;;;;26.68;100.00;101678.69;2122268;27;46074;-54
2023/09/03 03:45:24;;;;;;;;;3.00;3.00;;;;;26.70;100.00;101684.88;2120090;27;45531;-51
2023/09/03 03:46:24;;;;;;;;;2.00;1.00;;;;;26.69;100.00;101683.16;2117840;27;46466;-52
2023/09/03 03:47:24;;;;;;;;;2.00;2.00;;;;;26.69;100.00;101684.00;2121092;27;46278;-52
2023/09/03 03:48:25;;;;;;;;;2.00;2.00;;;;;26.69;100.00;101689.47;2122518;27;46623;-54
2023/09/03 03:49:25;;;;;;;;;3.00;3.00;;;;;26.69;100.00;101688.59;2120779;27;46625;-54
2023/09/03 03:50:29;;;;;;;;;2.00;2.00;;;;;26.70;100.00;101679.44;2121135;27;46582;-53
2023/09/03 03:51:29;;;;;;;;;1.25;1.25;;;;;26.68;100.00;101684.13;2120539;27;45642;-52
2023/09/03 03:52:30;;;;;;;;;2.33;2.33;;;;;26.69;100.00;101688.59;2122003;27;46453;-51
2023/09/03 03:53:30;;;;;;;;;1.00;1.00;;;;;26.68;100.00;101681.41;2121770;27;46435;-53
2023/09/03 03:54:31;;;;;;;;;2.67;2.00;;;;;26.66;100.00;101694.25;2122197;27;46254;-56
2023/09/03 03:55:31;;;;;;;;;3.00;2.00;;;;;26.65;100.00;101696.09;2121979;27;46198;-54
2023/09/03 03:56:31;;;;;;;;;3.00;3.00;;;;;26.67;100.00;101693.25;2121987;27;45509;-52
2023/09/03 03:57:32;;;;;;;;;3.00;3.00;;;;;26.67;100.00;101695.97;2122148;27;45023;-50
2023/09/03 03:58:35;;;;;;;;;4.00;4.00;;;;;26.73;100.00;101695.53;2121926;27;46493;-53
2023/09/03 03:59:36;;;;;;;;;2.75;2.75;;;;;26.67;100.00;101694.13;2113750;27;45780;-52
2023/09/03 04:00:36;;;;;;;;;4.75;2.00;;;;;26.64;100.00;101691.63;2122129;27;46350;-52
2023/09/03 04:01:37;;;;;;;;;1.33;1.33;;;;;26.63;100.00;101692.63;2122442;27;45108;-54
2023/09/03 04:02:38;;;;;;;;;2.00;2.00;;;;;26.63;100.00;101695.34;2122401;27;45640;-50
2023/09/03 04:03:38;;;;;;;;;1.00;1.00;;;;;26.63;100.00;101686.31;2118544;27;46718;-52
2023/09/03 04:04:38;;;;;;;;;3.00;3.00;;;;;26.63;100.00;101684.44;2122342;27;46653;-52
2023/09/03 04:05:39;;;;;;;;;2.00;2.00;;;;;26.63;100.00;101695.34;2120572;27;46549;-54
2023/09/03 04:06:39;;;;;;;;;1.33;1.00;;;;;26.62;100.00;101695.47;2121739;27;46336;-50
2023/09/03 04:07:42;;;;;;;;;2.33;2.33;;;;;26.63;100.00;101703.50;2122889;27;45463;-52
2023/09/03 04:08:43;;;;;;;;;1.00;1.00;;;;;26.58;100.00;101699.41;2122379;27;46519;-54
2023/09/03 04:09:43;;;;;;;;;2.00;2.00;;;;;26.51;100.00;101696.25;2122288;27;46058;-54
2023/09/03 04:10:44;;;;;;;;;5.00;3.33;;;;;26.58;100.00;101705.72;2121831;27;46293;-53
2023/09/03 04:11:44;;;;;;;;;2.67;2.00;;;;;26.61;100.00;101696.44;2121843;27;46377;-54
2023/09/03 04:12:44;;;;;;;;;1.00;1.00;;;;;26.64;100.00;101704.38;2119719;27;46660;-54
2023/09/03 04:13:45;;;;;;;;;4.33;4.33;;;;;26.64;100.00;101707.09;2094952;28;46327;-53
2023/09/03 04:14:45;;;;;;;;;3.33;3.33;;;;;26.64;100.00;101701.66;2100590;28;47022;-53
2023/09/03 04:15:45;;;;;;;;;3.00;3.00;;;;;26.63;100.00;101702.63;2122105;27;45658;-53
2023/09/03 04:16:46;;;;;;;;;3.00;3.00;;;;;26.64;100.00;101704.38;2113750;27;46447;-54
2023/09/03 04:17:47;;;;;;;;;2.00;2.00;;;;;26.62;100.00;101699.06;2117417;27;46437;-50
2023/09/03 04:18:49;;;;;;;;;3.33;3.33;;;;;26.69;100.00;101703.06;2122429;27;45619;-50
2023/09/03 04:19:49;;;;;;;;;2.50;2.50;;;;;26.63;100.00;101714.41;2120427;27;46389;-54
2023/09/03 04:20:53;;;;;;;;;2.00;2.00;;;;;26.62;100.00;101715.38;2121972;27;46824;-55
2023/09/03 04:21:54;;;;;;;;;3.25;2.00;;;;;26.60;100.00;101714.63;2120673;27;46518;-52
2023/09/03 04:22:55;;;;;;;;;2.67;2.67;;;;;26.60;100.00;101717.34;2121098;27;46621;-54
2023/09/03 04:23:56;;;;;;;;;2.00;2.00;;;;;26.63;100.00;101705.38;2121843;27;46595;-53
2023/09/03 04:24:56;;;;;;;;;1.00;1.00;;;;;26.62;100.00;101715.38;2113013;27;46823;-52
2023/09/03 04:25:57;;;;;;;;;3.33;2.67;;;;;26.62;100.00;101722.69;2104863;28;45738;-52
2023/09/03 04:26:58;;;;;;;;;2.67;2.00;;;;;26.63;100.00;101718.97;2104295;28;46674;-53
2023/09/03 04:27:58;;;;;;;;;2.00;2.00;;;;;26.61;100.00;101710.06;2112571;27;48091;-55
2023/09/03 04:28:58;;;;;;;;;4.00;3.00;;;;;26.61;100.00;101712.78;2121709;27;46806;-52
2023/09/03 04:29:59;;;;;;;;;3.67;2.67;;;;;26.60;100.00;101722.81;2114207;27;47446;-53
2023/09/03 04:31:00;;;;;;;;;5.00;4.00;;;;;26.61;100.00;101713.66;2118252;27;46376;-55
2023/09/03 04:32:01;;;;;;;;;2.00;2.00;;;;;26.58;100.00;101724.78;2121974;27;46661;-55
2023/09/03 04:33:02;;;;;;;;;3.00;3.00;;;;;26.58;100.00;101713.88;2121550;27;46714;-54
2023/09/03 04:34:03;;;;;;;;;3.00;3.00;;;;;26.58;100.00;101722.06;2122340;27;46150;-55
2023/09/03 04:35:03;;;;;;;;;4.67;1.00;;;;;26.57;100.00;101714.88;2122111;27;46308;-55
2023/09/03 04:36:04;;;;;;;;;4.00;3.67;;;;;26.57;100.00;101720.31;2121788;27;46517;-55
2023/09/03 04:37:04;;;;;;;;;3.67;3.67;;;;;26.56;100.00;101714.97;2121616;27;46656;-55
2023/09/03 04:38:05;;;;;;;;;2.00;2.00;;;;;26.57;100.00;101723.03;2122047;27;46689;-54
2023/09/03 04:39:06;;;;;;;;;2.33;2.00;;;;;26.56;100.00;101720.44;2116933;27;46189;-54
2023/09/03 04:40:08;;;;;;;;;3.00;3.00;;;;;26.56;100.00;101715.84;2113305;27;46931;-56
2023/09/03 04:41:09;;;;;;;;;2.00;2.00;;;;;26.56;100.00;101725.88;2095279;28;47019;-52
2023/09/03 04:42:09;;;;;;;;;2.67;2.67;;;;;26.54;100.00;101725.97;2096126;27;46914;-53
2023/09/03 04:43:09;;;;;;;;;3.00;2.67;;;;;26.55;100.00;101732.28;2121853;27;46188;-52
2023/09/03 04:44:12;;;;;;;;;3.00;3.00;;;;;26.55;100.00;101727.72;2121957;27;46960;-51
2023/09/03 04:45:13;;;;;;;;;3.00;3.00;;;;;26.55;100.00;101735.91;2120606;27;46284;-53